Utica, Minnesota
Current Conditions -  °F | °C
As of 4:15 PM on Thursday 27 Nov 2014 (Local Time) from KONA Reporting Station
Clear Clear  
Wind Chill:   Ceiling: Unl
Heat Index: 12°   Visibility: 10mi
Dew Point:   Wind: 5mph
Humidity: 62%   Direction: 280°W
Pressure: 30.46"   Gusts: NA
Location:  43.98°N, 91.95°W
Report Text: KONA 272215Z AUTO 28004KT 10SM CLR M11/M17 A3046 RMK AO2
Loading
Personal Weather Stations






























Interactive Weather Map New forecast layout! Learn more

10-Day Weather Forecast

Advertisements
Track Severe Weather on mobile